Airfield :
LOGIN :

Register | Disclaimer

   EN    FR    IT 

 










Legend :    VFR   Marginal VFR   IFR   Intensive IFR   Very Intensive IFR
Visi :
Ceiling :
>= 8 km
>= 3000ft
5 to 8 km
1000 to 3000 ft
1500m to 5 km
500 to 1000 ft
800 to 1500m
200 to 500 ft
< 800m
< 200 ft
Symbols :   Thunderstorms  Fog  Heavy snow  Heavy precipitations  Wind > 20 kt
SIGMETs :     Misc.  Thunderstorms  Icing  Turbulence  Mountain Waves  Volcanic Ashes







- Airport Elevation : 465 ft
- IATA code : LEJ


EDDP - Leipzig Halle

CURRENT METAR :
  • 281620Z 26015KT CAVOK 22/08 Q1012 NOSIG

EXPIRED METARs :
  • 281553Z 26014G24KT CAVOK 23/10 Q1012 NOSIG
  • 281550Z 26015KT CAVOK 23/09 Q1012 TEMPO 27015G25KT
  • 281520Z 26015KT 230V290 CAVOK 23/10 Q1012 NOSIG
  • 281450Z 24016G26KT CAVOK 23/10 Q1012 TEMPO 27015G25KT
  • 281441Z 25015G25KT 220V280 CAVOK 23/10 Q1012 NOSIG
  • 281420Z 25018KT CAVOK 23/11 Q1012 TEMPO 27015G25KT
  • 281350Z 24017KT CAVOK 22/09 Q1012 TEMPO 27015G25KT

TAF TAF EDDP
Valid from the 28 at 06:00 until the 29 at 06:00 UTC


280500Z 2806/2906 27005KT CAVOK
BECMG 2809/2811 27013KT
TEMPO 2810/2816 27015G25KT
BECMG 2815/2818 25006KT
BECMG 2822/2824 19004KT
No reported NOTAMs for that airfield.



MET'MAP, your aeronautical weather chart ! - Copyright ORBIFLY December 2007 - Disclaimer

ORBIFLY MET'MAP TEAM :

Programming & Development : Alexandra Zaïnal
Concept & Development : Baudouin d'Aumeries
Co-Development & Prog : Marc-Olivier Méhu
Technical & hardware support : Manuel Goepfert

Contact : metmap@orbifly.com




SOURCES & CREDITS :

   NOAA